WDY71 KPHF-KFEP
Flight info
| Callsign | WDY71 |
|---|---|
| Flight time | N/A |
| Altitude | 47000 |
| Route | HENRY4 OGTOE MANPD ORLEE BARKS OBENE MIHAL |
| Aircraft | C750/M-SBDE3FGHRWXY/S |
Departure
| Time | 2026-05-06 01:33 |
|---|---|
| Airport | Newport News Williamsburg International Airport (KPHF) |
Arrival
| Time | N/A |
|---|---|
| Airport | Albertus Airport (KFEP) |
| Time | Latitude | Longitude | Altitude | Speed | Heading |
|---|---|---|---|---|---|
| 2026-05-06 01:14 | 37.13515 | -76.49911 | 45 ft | 0 kts | 286° |
| 2026-05-06 01:31 | 37.13520 | -76.49916 | 45 ft | 3 kts | 333° |
| 2026-05-06 01:31 | 37.13582 | -76.49887 | 45 ft | 15 kts | 21° |
| 2026-05-06 01:32 | 37.13711 | -76.49829 | 46 ft | 25 kts | 16° |
| 2026-05-06 01:32 | 37.13820 | -76.49744 | 46 ft | 16 kts | 101° |
| 2026-05-06 01:32 | 37.13785 | -76.49595 | 46 ft | 17 kts | 118° |
| 2026-05-06 01:32 | 37.13727 | -76.49573 | 46 ft | 0 kts | 192° |
| 2026-05-06 01:33 | 37.13524 | -76.49630 | 46 ft | 87 kts | 192° |
| 2026-05-06 01:33 | 37.12694 | -76.49890 | 276 ft | 140 kts | 195° |
| 2026-05-06 01:33 | 37.11657 | -76.50122 | 778 ft | 165 kts | 188° |
| 2026-05-06 01:34 | 37.10427 | -76.50345 | 1327 ft | 192 kts | 188° |
| 2026-05-06 01:34 | 37.09048 | -76.50769 | 1677 ft | 220 kts | 205° |
| 2026-05-06 01:34 | 37.07965 | -76.52282 | 1981 ft | 252 kts | 244° |
| 2026-05-06 01:34 | 37.07889 | -76.54433 | 2688 ft | 262 kts | 279° |
| 2026-05-06 01:35 | 37.08781 | -76.56457 | 3674 ft | 269 kts | 298° |
| 2026-05-06 01:35 | 37.09838 | -76.58366 | 4917 ft | 267 kts | 296° |
| 2026-05-06 01:35 | 37.10752 | -76.60393 | 6008 ft | 266 kts | 291° |
| 2026-05-06 01:35 | 37.11582 | -76.62466 | 7081 ft | 268 kts | 291° |
| 2026-05-06 01:36 | 37.12466 | -76.64557 | 8130 ft | 274 kts | 293° |
| 2026-05-06 01:36 | 37.13395 | -76.66662 | 9212 ft | 278 kts | 294° |
| 2026-05-06 01:36 | 37.14332 | -76.68811 | 10194 ft | 283 kts | 293° |
| 2026-05-06 01:36 | 37.15281 | -76.71034 | 10645 ft | 305 kts | 294° |
| 2026-05-06 01:37 | 37.16324 | -76.73483 | 10849 ft | 333 kts | 294° |
| 2026-05-06 01:37 | 37.17463 | -76.76110 | 11312 ft | 346 kts | 295° |
| 2026-05-06 01:37 | 37.18616 | -76.78760 | 12225 ft | 346 kts | 295° |
| 2026-05-06 01:37 | 37.19761 | -76.81432 | 13035 ft | 349 kts | 295° |
| 2026-05-06 01:38 | 37.20915 | -76.84134 | 13775 ft | 354 kts | 295° |
| 2026-05-06 01:38 | 37.22089 | -76.86866 | 14481 ft | 358 kts | 295° |
| 2026-05-06 01:38 | 37.23279 | -76.89634 | 15192 ft | 362 kts | 295° |
| 2026-05-06 01:38 | 37.24475 | -76.92429 | 15868 ft | 366 kts | 295° |
| 2026-05-06 01:39 | 37.25682 | -76.95254 | 16608 ft | 369 kts | 296° |
| 2026-05-06 01:39 | 37.26886 | -76.98069 | 17325 ft | 373 kts | 296° |
| 2026-05-06 01:39 | 37.28119 | -77.00952 | 18063 ft | 377 kts | 296° |
| 2026-05-06 01:39 | 37.29365 | -77.03871 | 18791 ft | 381 kts | 296° |
| 2026-05-06 01:40 | 37.30622 | -77.06821 | 19525 ft | 385 kts | 296° |
| 2026-05-06 01:40 | 37.31892 | -77.09803 | 20283 ft | 388 kts | 296° |
| 2026-05-06 01:40 | 37.33173 | -77.12811 | 21013 ft | 392 kts | 296° |
| 2026-05-06 01:40 | 37.34462 | -77.15842 | 21733 ft | 395 kts | 295° |
| 2026-05-06 01:41 | 37.35763 | -77.18906 | 22425 ft | 399 kts | 295° |
| 2026-05-06 01:41 | 37.38221 | -77.24698 | 23674 ft | 406 kts | 295° |
| 2026-05-06 01:41 | 37.39553 | -77.27842 | 24365 ft | 408 kts | 295° |
| 2026-05-06 01:42 | 37.40893 | -77.31009 | 24992 ft | 412 kts | 295° |
| 2026-05-06 01:42 | 37.42221 | -77.34151 | 25648 ft | 414 kts | 295° |
| 2026-05-06 01:42 | 37.43577 | -77.37362 | 26289 ft | 416 kts | 296° |
| 2026-05-06 01:42 | 37.44939 | -77.40589 | 26888 ft | 419 kts | 296° |
| 2026-05-06 01:43 | 37.46307 | -77.43832 | 27529 ft | 420 kts | 296° |
| 2026-05-06 01:43 | 37.47676 | -77.47084 | 28141 ft | 422 kts | 296° |
| 2026-05-06 01:43 | 37.49058 | -77.50370 | 28701 ft | 425 kts | 296° |
| 2026-05-06 01:43 | 37.50441 | -77.53658 | 29271 ft | 427 kts | 297° |
| 2026-05-06 01:44 | 37.51832 | -77.56968 | 29824 ft | 429 kts | 297° |
| 2026-05-06 01:44 | 37.53209 | -77.60250 | 30315 ft | 432 kts | 297° |
| 2026-05-06 01:44 | 37.54612 | -77.63603 | 30848 ft | 434 kts | 297° |
| 2026-05-06 01:44 | 37.56013 | -77.66956 | 31539 ft | 431 kts | 297° |
| 2026-05-06 01:45 | 37.57400 | -77.70273 | 32308 ft | 426 kts | 297° |
| 2026-05-06 01:45 | 37.58781 | -77.73573 | 33014 ft | 423 kts | 297° |
| 2026-05-06 01:45 | 37.60147 | -77.76845 | 33712 ft | 420 kts | 297° |
| 2026-05-06 01:45 | 37.61499 | -77.80095 | 34385 ft | 418 kts | 297° |
| 2026-05-06 01:46 | 37.62844 | -77.83328 | 35091 ft | 414 kts | 297° |
| 2026-05-06 01:46 | 37.64177 | -77.86529 | 35824 ft | 409 kts | 297° |
| 2026-05-06 01:46 | 37.65491 | -77.89691 | 36536 ft | 405 kts | 297° |
| 2026-05-06 01:46 | 37.66794 | -77.92829 | 37243 ft | 401 kts | 297° |
| 2026-05-06 01:47 | 37.68077 | -77.95925 | 38022 ft | 394 kts | 298° |
| 2026-05-06 01:47 | 37.69316 | -77.98919 | 38691 ft | 387 kts | 298° |
| 2026-05-06 01:47 | 37.70572 | -78.01948 | 39263 ft | 382 kts | 298° |
| 2026-05-06 01:47 | 37.71799 | -78.04915 | 39753 ft | 379 kts | 298° |
| 2026-05-06 01:48 | 37.73020 | -78.07870 | 40134 ft | 380 kts | 298° |
| 2026-05-06 01:48 | 37.74242 | -78.10832 | 40579 ft | 380 kts | 298° |
| 2026-05-06 01:48 | 37.75448 | -78.13758 | 41018 ft | 381 kts | 298° |
| 2026-05-06 01:48 | 37.76672 | -78.16727 | 41429 ft | 381 kts | 298° |
| 2026-05-06 01:49 | 37.77895 | -78.19698 | 41841 ft | 382 kts | 298° |
| 2026-05-06 01:49 | 37.79122 | -78.22684 | 42228 ft | 383 kts | 298° |
| 2026-05-06 01:49 | 37.80350 | -78.25673 | 42628 ft | 383 kts | 298° |
| 2026-05-06 01:49 | 37.81578 | -78.28665 | 42995 ft | 384 kts | 298° |
| 2026-05-06 01:50 | 37.82804 | -78.31654 | 43351 ft | 384 kts | 298° |
| 2026-05-06 01:50 | 37.84038 | -78.34667 | 43716 ft | 385 kts | 298° |
| 2026-05-06 01:50 | 37.85267 | -78.37671 | 44052 ft | 386 kts | 298° |
| 2026-05-06 01:50 | 37.86500 | -78.40685 | 44373 ft | 386 kts | 298° |
| 2026-05-06 01:51 | 37.87770 | -78.43794 | 44637 ft | 389 kts | 298° |
| 2026-05-06 01:51 | 37.88969 | -78.46731 | 44866 ft | 392 kts | 297° |
| 2026-05-06 01:51 | 37.90218 | -78.49796 | 45155 ft | 393 kts | 297° |
| 2026-05-06 01:51 | 37.91476 | -78.52887 | 45381 ft | 396 kts | 297° |
| 2026-05-06 01:52 | 37.92740 | -78.55993 | 45621 ft | 398 kts | 297° |
| 2026-05-06 01:52 | 37.94011 | -78.59120 | 45855 ft | 400 kts | 297° |
| 2026-05-06 01:52 | 37.95287 | -78.62261 | 46118 ft | 401 kts | 297° |
| 2026-05-06 01:52 | 37.96566 | -78.65415 | 46314 ft | 404 kts | 297° |
| 2026-05-06 01:53 | 37.97851 | -78.68585 | 46528 ft | 405 kts | 297° |
| 2026-05-06 01:53 | 37.99139 | -78.71766 | 46746 ft | 406 kts | 297° |
| 2026-05-06 01:53 | 38.00412 | -78.74914 | 46952 ft | 407 kts | 297° |
| 2026-05-06 01:53 | 38.01715 | -78.78139 | 46953 ft | 414 kts | 296° |
| 2026-05-06 01:54 | 38.04368 | -78.84717 | 46972 ft | 425 kts | 296° |
| 2026-05-06 01:54 | 38.07091 | -78.91482 | 46980 ft | 436 kts | 296° |
| 2026-05-06 01:55 | 38.09879 | -78.98422 | 46982 ft | 446 kts | 296° |
| 2026-05-06 01:55 | 38.12703 | -79.05470 | 46985 ft | 455 kts | 296° |
| 2026-05-06 01:56 | 38.15585 | -79.12678 | 46985 ft | 461 kts | 296° |
| 2026-05-06 01:56 | 38.18499 | -79.19983 | 46968 ft | 466 kts | 296° |
| 2026-05-06 01:57 | 38.21429 | -79.27346 | 46974 ft | 468 kts | 296° |
| 2026-05-06 01:57 | 38.24376 | -79.34766 | 46975 ft | 471 kts | 296° |
| 2026-05-06 01:58 | 38.27314 | -79.42186 | 46985 ft | 471 kts | 296° |
| 2026-05-06 01:58 | 38.30271 | -79.49670 | 46977 ft | 472 kts | 296° |
| 2026-05-06 01:59 | 38.33198 | -79.57096 | 46980 ft | 472 kts | 296° |
| 2026-05-06 01:59 | 38.36138 | -79.64574 | 46980 ft | 473 kts | 296° |
| 2026-05-06 02:00 | 38.39077 | -79.72067 | 46971 ft | 473 kts | 296° |
| 2026-05-06 02:00 | 38.42013 | -79.79570 | 46964 ft | 473 kts | 296° |
| 2026-05-06 02:01 | 38.44942 | -79.87075 | 46967 ft | 472 kts | 296° |
| 2026-05-06 02:01 | 38.47845 | -79.94530 | 46965 ft | 472 kts | 296° |
| 2026-05-06 02:02 | 38.50763 | -80.02043 | 46966 ft | 472 kts | 295° |
| 2026-05-06 02:02 | 38.53674 | -80.09554 | 46953 ft | 472 kts | 295° |
| 2026-05-06 02:03 | 38.56578 | -80.17067 | 46956 ft | 471 kts | 295° |
| 2026-05-06 02:03 | 38.59477 | -80.24584 | 46946 ft | 472 kts | 295° |
| 2026-05-06 02:04 | 38.62355 | -80.32069 | 46912 ft | 473 kts | 295° |
| 2026-05-06 02:04 | 38.65253 | -80.39621 | 46908 ft | 473 kts | 295° |
| 2026-05-06 02:05 | 38.68145 | -80.47178 | 46901 ft | 473 kts | 295° |
| 2026-05-06 02:05 | 38.71067 | -80.54712 | 46887 ft | 473 kts | 296° |
| 2026-05-06 02:06 | 38.74072 | -80.62138 | 46884 ft | 473 kts | 295° |
| 2026-05-06 02:06 | 38.77020 | -80.69664 | 46885 ft | 473 kts | 295° |
| 2026-05-06 02:07 | 38.80007 | -80.77169 | 46887 ft | 473 kts | 295° |
| 2026-05-06 02:07 | 38.82967 | -80.84701 | 46882 ft | 473 kts | 295° |
| 2026-05-06 02:08 | 38.85933 | -80.92228 | 46888 ft | 473 kts | 295° |
| 2026-05-06 02:08 | 38.88889 | -80.99765 | 46889 ft | 473 kts | 295° |
| 2026-05-06 02:09 | 38.91820 | -81.07252 | 46888 ft | 473 kts | 295° |
| 2026-05-06 02:09 | 38.94769 | -81.14804 | 46891 ft | 473 kts | 295° |
| 2026-05-06 02:10 | 38.97716 | -81.22371 | 46880 ft | 473 kts | 295° |
| 2026-05-06 02:10 | 39.00650 | -81.29921 | 46881 ft | 472 kts | 295° |
| 2026-05-06 02:11 | 39.03579 | -81.37478 | 46882 ft | 472 kts | 295° |
| 2026-05-06 02:11 | 39.06483 | -81.44989 | 46876 ft | 472 kts | 295° |
| 2026-05-06 02:12 | 39.09405 | -81.52566 | 46870 ft | 472 kts | 294° |
| 2026-05-06 02:12 | 39.12321 | -81.60145 | 46871 ft | 472 kts | 294° |
| 2026-05-06 02:13 | 39.15233 | -81.67736 | 46862 ft | 473 kts | 294° |
| 2026-05-06 02:13 | 39.18123 | -81.75284 | 46863 ft | 473 kts | 294° |
| 2026-05-06 02:14 | 39.21026 | -81.82887 | 46865 ft | 472 kts | 294° |
| 2026-05-06 02:14 | 39.23921 | -81.90490 | 46852 ft | 472 kts | 294° |
| 2026-05-06 02:15 | 39.26811 | -81.98096 | 46851 ft | 472 kts | 294° |
| 2026-05-06 02:15 | 39.29695 | -82.05708 | 46853 ft | 472 kts | 294° |
| 2026-05-06 02:16 | 39.32553 | -82.13271 | 46846 ft | 472 kts | 294° |
| 2026-05-06 02:16 | 39.35427 | -82.20893 | 46845 ft | 472 kts | 294° |
| 2026-05-06 02:17 | 39.38296 | -82.28524 | 46838 ft | 472 kts | 294° |
| 2026-05-06 02:17 | 39.41163 | -82.36168 | 46842 ft | 472 kts | 294° |
| 2026-05-06 02:18 | 39.44023 | -82.43813 | 46847 ft | 472 kts | 294° |
| 2026-05-06 02:18 | 39.46879 | -82.51468 | 46844 ft | 472 kts | 294° |
| 2026-05-06 02:19 | 39.49733 | -82.59136 | 46844 ft | 472 kts | 293° |
| 2026-05-06 02:19 | 39.52560 | -82.66750 | 46855 ft | 472 kts | 293° |
| 2026-05-06 02:20 | 39.56817 | -82.78254 | 46859 ft | 473 kts | 293° |
| 2026-05-06 02:21 | 39.59658 | -82.85960 | 46860 ft | 473 kts | 293° |
| 2026-05-06 02:21 | 39.62488 | -82.93652 | 46860 ft | 473 kts | 293° |
| 2026-05-06 02:22 | 39.65318 | -83.01364 | 46860 ft | 473 kts | 293° |
| 2026-05-06 02:22 | 39.68143 | -83.09084 | 46860 ft | 473 kts | 293° |
| 2026-05-06 02:23 | 39.70960 | -83.16804 | 46860 ft | 474 kts | 293° |
| 2026-05-06 02:23 | 39.73778 | -83.24543 | 46861 ft | 474 kts | 293° |
| 2026-05-06 02:24 | 39.76591 | -83.32292 | 46860 ft | 474 kts | 293° |
| 2026-05-06 02:24 | 39.79378 | -83.39988 | 46861 ft | 474 kts | 293° |
| 2026-05-06 02:25 | 39.82206 | -83.47751 | 46863 ft | 475 kts | 293° |
| 2026-05-06 02:25 | 39.85062 | -83.55486 | 46862 ft | 475 kts | 293° |
| 2026-05-06 02:26 | 39.87892 | -83.63258 | 46867 ft | 475 kts | 293° |
| 2026-05-06 02:26 | 39.90730 | -83.71017 | 46883 ft | 475 kts | 293° |
| 2026-05-06 02:27 | 39.93537 | -83.78745 | 46877 ft | 475 kts | 293° |
| 2026-05-06 02:27 | 39.96365 | -83.86533 | 46875 ft | 475 kts | 293° |
| 2026-05-06 02:28 | 39.99185 | -83.94328 | 46878 ft | 475 kts | 292° |
| 2026-05-06 02:28 | 40.02002 | -84.02133 | 46878 ft | 476 kts | 292° |
| 2026-05-06 02:29 | 40.04815 | -84.09951 | 46863 ft | 476 kts | 292° |
| 2026-05-06 02:29 | 40.07604 | -84.17718 | 46866 ft | 476 kts | 292° |
| 2026-05-06 02:30 | 40.10406 | -84.25545 | 46867 ft | 476 kts | 292° |
| 2026-05-06 02:30 | 40.13206 | -84.33389 | 46878 ft | 476 kts | 292° |
| 2026-05-06 02:31 | 40.15998 | -84.41231 | 46873 ft | 476 kts | 292° |
| 2026-05-06 02:31 | 40.18784 | -84.49074 | 46877 ft | 476 kts | 292° |
| 2026-05-06 02:32 | 40.21568 | -84.56937 | 46877 ft | 476 kts | 292° |
| 2026-05-06 02:32 | 40.24348 | -84.64807 | 46879 ft | 476 kts | 292° |
| 2026-05-06 02:33 | 40.27101 | -84.72625 | 46885 ft | 476 kts | 292° |
| 2026-05-06 02:33 | 40.28037 | -84.75287 | 46882 ft | 476 kts | 292° |
| 2026-05-06 02:34 | 40.32620 | -84.88359 | 46888 ft | 475 kts | 292° |
| 2026-05-06 02:34 | 40.35376 | -84.96249 | 46891 ft | 475 kts | 292° |
| 2026-05-06 02:35 | 40.38122 | -85.04131 | 46887 ft | 475 kts | 292° |
| 2026-05-06 02:35 | 40.40860 | -85.12014 | 46894 ft | 474 kts | 292° |
| 2026-05-06 02:36 | 40.43591 | -85.19897 | 46898 ft | 474 kts | 292° |
| 2026-05-06 02:36 | 40.46316 | -85.27783 | 46891 ft | 474 kts | 292° |
| 2026-05-06 02:37 | 40.49011 | -85.35608 | 46886 ft | 473 kts | 292° |
| 2026-05-06 02:37 | 40.51721 | -85.43497 | 46888 ft | 473 kts | 292° |
| 2026-05-06 02:38 | 40.54423 | -85.51383 | 46884 ft | 473 kts | 291° |
| 2026-05-06 02:38 | 40.57070 | -85.59262 | 46892 ft | 462 kts | 291° |
| 2026-05-06 02:38 | 40.58322 | -85.63040 | 46879 ft | 437 kts | 291° |
| 2026-05-06 02:39 | 40.59515 | -85.66606 | 46871 ft | 416 kts | 291° |
| 2026-05-06 02:39 | 40.60653 | -85.70005 | 46866 ft | 396 kts | 291° |
| 2026-05-06 02:39 | 40.61727 | -85.73237 | 46865 ft | 377 kts | 290° |
| 2026-05-06 02:39 | 40.62753 | -85.76333 | 46867 ft | 359 kts | 290° |
| 2026-05-06 02:40 | 40.63730 | -85.79277 | 46870 ft | 342 kts | 290° |
| 2026-05-06 02:40 | 40.64662 | -85.82083 | 46869 ft | 326 kts | 290° |
| 2026-05-06 02:40 | 40.65546 | -85.84753 | 46870 ft | 311 kts | 290° |
| 2026-05-06 02:40 | 40.66391 | -85.87308 | 46873 ft | 298 kts | 290° |
| 2026-05-06 02:41 | 40.67205 | -85.89772 | 46881 ft | 289 kts | 290° |
| 2026-05-06 02:41 | 40.68004 | -85.92197 | 46896 ft | 290 kts | 290° |
| 2026-05-06 02:41 | 40.68815 | -85.94661 | 46910 ft | 297 kts | 290° |
| 2026-05-06 02:42 | 40.70493 | -85.99749 | 46936 ft | 311 kts | 290° |
| 2026-05-06 02:42 | 40.72249 | -86.05085 | 46902 ft | 321 kts | 290° |
| 2026-05-06 02:43 | 40.74018 | -86.10467 | 46889 ft | 318 kts | 290° |
| 2026-05-06 02:43 | 40.75765 | -86.15797 | 46888 ft | 314 kts | 290° |
| 2026-05-06 02:44 | 40.77491 | -86.21076 | 46889 ft | 313 kts | 290° |
| 2026-05-06 02:44 | 40.79216 | -86.26360 | 46902 ft | 315 kts | 290° |
| 2026-05-06 02:45 | 40.80940 | -86.31650 | 46904 ft | 316 kts | 290° |
| 2026-05-06 02:45 | 40.82688 | -86.37025 | 46910 ft | 317 kts | 290° |
| 2026-05-06 02:46 | 40.84411 | -86.42333 | 46911 ft | 316 kts | 290° |
| 2026-05-06 02:46 | 40.86143 | -86.47678 | 46916 ft | 316 kts | 290° |
| 2026-05-06 02:47 | 40.87869 | -86.53015 | 46912 ft | 316 kts | 289° |
| 2026-05-06 02:47 | 40.89596 | -86.58368 | 46909 ft | 316 kts | 289° |
| 2026-05-06 02:48 | 40.91323 | -86.63729 | 46905 ft | 317 kts | 289° |
| 2026-05-06 02:48 | 40.93044 | -86.69083 | 46909 ft | 316 kts | 289° |
| 2026-05-06 02:49 | 40.94764 | -86.74446 | 46911 ft | 316 kts | 289° |
| 2026-05-06 02:49 | 40.96474 | -86.79785 | 46914 ft | 318 kts | 289° |
| 2026-05-06 02:50 | 40.98196 | -86.85173 | 46917 ft | 318 kts | 289° |
| 2026-05-06 02:50 | 40.99917 | -86.90570 | 46915 ft | 318 kts | 289° |
| 2026-05-06 02:51 | 41.01636 | -86.95971 | 46913 ft | 318 kts | 289° |
| 2026-05-06 02:51 | 41.03349 | -87.01363 | 46915 ft | 318 kts | 289° |
| 2026-05-06 02:52 | 41.05061 | -87.06763 | 46913 ft | 318 kts | 289° |
| 2026-05-06 02:52 | 41.06484 | -87.11261 | 46908 ft | 318 kts | 289° |
| 2026-05-06 02:53 | 41.08191 | -87.16663 | 46910 ft | 318 kts | 289° |
| 2026-05-06 02:53 | 41.09895 | -87.22070 | 46911 ft | 318 kts | 289° |
| 2026-05-06 02:53 | 41.10754 | -87.24802 | 46642 ft | 325 kts | 289° |
| 2026-05-06 02:54 | 41.11631 | -87.27594 | 46184 ft | 330 kts | 289° |
| 2026-05-06 02:54 | 41.12516 | -87.30405 | 45727 ft | 330 kts | 289° |
| 2026-05-06 02:54 | 41.13400 | -87.33220 | 45271 ft | 336 kts | 289° |
| 2026-05-06 02:54 | 41.14323 | -87.36185 | 44801 ft | 359 kts | 289° |
| 2026-05-06 02:55 | 41.15308 | -87.39338 | 44320 ft | 381 kts | 289° |
| 2026-05-06 02:55 | 41.16357 | -87.42685 | 43798 ft | 404 kts | 289° |
| 2026-05-06 02:55 | 41.17464 | -87.46220 | 43247 ft | 424 kts | 289° |
| 2026-05-06 02:55 | 41.18611 | -87.49892 | 42657 ft | 436 kts | 289° |
| 2026-05-06 02:56 | 41.19773 | -87.53617 | 42065 ft | 435 kts | 289° |
| 2026-05-06 02:56 | 41.20921 | -87.57301 | 41479 ft | 429 kts | 289° |
| 2026-05-06 02:56 | 41.22054 | -87.60946 | 40906 ft | 424 kts | 288° |
| 2026-05-06 02:56 | 41.23165 | -87.64534 | 40342 ft | 418 kts | 288° |
| 2026-05-06 02:57 | 41.24265 | -87.68084 | 39786 ft | 412 kts | 288° |
| 2026-05-06 02:57 | 41.25351 | -87.71592 | 39238 ft | 407 kts | 288° |
| 2026-05-06 02:57 | 41.26421 | -87.75054 | 38710 ft | 403 kts | 288° |
| 2026-05-06 02:57 | 41.27480 | -87.78491 | 38173 ft | 401 kts | 288° |
| 2026-05-06 02:58 | 41.28538 | -87.81932 | 37639 ft | 402 kts | 288° |
| 2026-05-06 02:58 | 41.29586 | -87.85336 | 37106 ft | 404 kts | 287° |
| 2026-05-06 02:58 | 41.30651 | -87.88799 | 36574 ft | 405 kts | 287° |
| 2026-05-06 02:58 | 41.31723 | -87.92275 | 36036 ft | 406 kts | 287° |
| 2026-05-06 02:59 | 41.32792 | -87.95760 | 35488 ft | 409 kts | 287° |
| 2026-05-06 02:59 | 41.33870 | -87.99297 | 34939 ft | 417 kts | 287° |
| 2026-05-06 02:59 | 41.34958 | -88.02888 | 34372 ft | 420 kts | 287° |
| 2026-05-06 02:59 | 41.36066 | -88.06489 | 33803 ft | 416 kts | 287° |
| 2026-05-06 03:00 | 41.37130 | -88.09912 | 33275 ft | 391 kts | 286° |
| 2026-05-06 03:00 | 41.38146 | -88.13279 | 32750 ft | 397 kts | 286° |
| 2026-05-06 03:00 | 41.39189 | -88.16793 | 32230 ft | 419 kts | 286° |
| 2026-05-06 03:00 | 41.40307 | -88.20455 | 31660 ft | 436 kts | 286° |
| 2026-05-06 03:01 | 41.41465 | -88.24228 | 31083 ft | 443 kts | 287° |
| 2026-05-06 03:01 | 41.42627 | -88.28042 | 30489 ft | 445 kts | 286° |
| 2026-05-06 03:01 | 41.43778 | -88.31883 | 29882 ft | 448 kts | 286° |
| 2026-05-06 03:01 | 41.44937 | -88.35735 | 29292 ft | 446 kts | 286° |
| 2026-05-06 03:02 | 41.46098 | -88.39566 | 28695 ft | 447 kts | 286° |
| 2026-05-06 03:02 | 41.47259 | -88.43407 | 28103 ft | 445 kts | 286° |
| 2026-05-06 03:02 | 41.48409 | -88.47233 | 27513 ft | 443 kts | 286° |
| 2026-05-06 03:02 | 41.49547 | -88.51034 | 26929 ft | 442 kts | 286° |
| 2026-05-06 03:03 | 41.50686 | -88.54839 | 26361 ft | 440 kts | 286° |
| 2026-05-06 03:03 | 41.51822 | -88.58631 | 25790 ft | 440 kts | 286° |
| 2026-05-06 03:03 | 41.52954 | -88.62411 | 25222 ft | 437 kts | 286° |
| 2026-05-06 03:03 | 41.54079 | -88.66180 | 24650 ft | 436 kts | 286° |
| 2026-05-06 03:04 | 41.55200 | -88.69948 | 24089 ft | 434 kts | 286° |
| 2026-05-06 03:04 | 41.56318 | -88.73702 | 23519 ft | 435 kts | 286° |
| 2026-05-06 03:04 | 41.57433 | -88.77450 | 22953 ft | 431 kts | 286° |
| 2026-05-06 03:04 | 41.58532 | -88.81148 | 22395 ft | 427 kts | 286° |
| 2026-05-06 03:05 | 41.59621 | -88.84824 | 21841 ft | 423 kts | 286° |
| 2026-05-06 03:05 | 41.60696 | -88.88460 | 21297 ft | 419 kts | 286° |
| 2026-05-06 03:05 | 41.61751 | -88.92029 | 20756 ft | 416 kts | 287° |
| 2026-05-06 03:05 | 41.62825 | -88.95663 | 20208 ft | 413 kts | 287° |
| 2026-05-06 03:06 | 41.63960 | -88.99079 | 19394 ft | 400 kts | 293° |
| 2026-05-06 03:06 | 41.65537 | -89.02044 | 18505 ft | 382 kts | 303° |
| 2026-05-06 03:06 | 41.67377 | -89.04479 | 17791 ft | 362 kts | 310° |
| 2026-05-06 03:06 | 41.69202 | -89.06722 | 16554 ft | 353 kts | 310° |
| 2026-05-06 03:07 | 41.70982 | -89.08955 | 15212 ft | 349 kts | 310° |
| 2026-05-06 03:07 | 41.72757 | -89.11155 | 13954 ft | 347 kts | 311° |
| 2026-05-06 03:07 | 41.74526 | -89.13308 | 13623 ft | 337 kts | 311° |
| 2026-05-06 03:07 | 41.76295 | -89.15482 | 13257 ft | 347 kts | 311° |
| 2026-05-06 03:08 | 41.78057 | -89.17668 | 12797 ft | 344 kts | 311° |
| 2026-05-06 03:08 | 41.79813 | -89.19840 | 12338 ft | 343 kts | 311° |
| 2026-05-06 03:08 | 41.81566 | -89.21998 | 11881 ft | 341 kts | 312° |
| 2026-05-06 03:08 | 41.83301 | -89.24143 | 11431 ft | 339 kts | 312° |
| 2026-05-06 03:09 | 41.85002 | -89.26247 | 10984 ft | 322 kts | 313° |
| 2026-05-06 03:09 | 41.86589 | -89.28207 | 10620 ft | 299 kts | 314° |
| 2026-05-06 03:09 | 41.88066 | -89.30037 | 10285 ft | 280 kts | 314° |